sensor_id;sensor_type;location;lat;lon;timestamp;pressure;altitude;pressure_sealevel;temperature;humidity
84764;BME280;74992;51.072;6.088;2024-01-06T00:02:56;100036.78;;;6.48;92.75
84764;BME280;74992;51.072;6.088;2024-01-06T00:05:57;100038.53;;;6.49;93.12
84764;BME280;74992;51.072;6.088;2024-01-06T00:09:00;100044.53;;;6.50;93.03
84764;BME280;74992;51.072;6.088;2024-01-06T00:12:01;100051.38;;;6.52;92.88
84764;BME280;74992;51.072;6.088;2024-01-06T00:15:03;100058.22;;;6.53;92.56
84764;BME280;74992;51.072;6.088;2024-01-06T00:18:05;100059.94;;;6.54;92.19
84764;BME280;74992;51.072;6.088;2024-01-06T00:21:07;100062.50;;;6.56;92.61
84764;BME280;74992;51.072;6.088;2024-01-06T00:24:09;100065.94;;;6.58;92.14
84764;BME280;74992;51.072;6.088;2024-01-06T00:27:10;100064.22;;;6.58;92.33
84764;BME280;74992;51.072;6.088;2024-01-06T00:30:12;100065.94;;;6.59;92.55
84764;BME280;74992;51.072;6.088;2024-01-06T00:33:13;100074.53;;;6.61;92.23
84764;BME280;74992;51.072;6.088;2024-01-06T00:36:15;100081.38;;;6.62;92.92
84764;BME280;74992;51.072;6.088;2024-01-06T00:39:17;100076.25;;;6.62;92.43
84764;BME280;74992;51.072;6.088;2024-01-06T00:42:18;100080.53;;;6.68;92.56
84764;BME280;74992;51.072;6.088;2024-01-06T00:45:20;100082.25;;;6.69;92.95
84764;BME280;74992;51.072;6.088;2024-01-06T00:48:22;100078.84;;;6.70;92.53
84764;BME280;74992;51.072;6.088;2024-01-06T00:51:23;100086.59;;;6.73;93.32
84764;BME280;74992;51.072;6.088;2024-01-06T00:54:25;100084.03;;;6.75;93.08
84764;BME280;74992;51.072;6.088;2024-01-06T00:57:26;100086.53;;;6.70;93.43
84764;BME280;74992;51.072;6.088;2024-01-06T01:00:27;100088.28;;;6.74;92.75
84764;BME280;74992;51.072;6.088;2024-01-06T01:03:29;100084.00;;;6.71;93.20
84764;BME280;74992;51.072;6.088;2024-01-06T01:06:30;100085.69;;;6.69;92.89
84764;BME280;74992;51.072;6.088;2024-01-06T01:09:32;100087.38;;;6.70;93.24
84764;BME280;74992;51.072;6.088;2024-01-06T01:12:33;100093.38;;;6.71;92.98
84764;BME280;74992;51.072;6.088;2024-01-06T01:15:34;100095.13;;;6.72;93.73
84764;BME280;74992;51.072;6.088;2024-01-06T01:18:36;100099.41;;;6.73;92.84
84764;BME280;74992;51.072;6.088;2024-01-06T01:21:37;100090.03;;;6.77;92.96
84764;BME280;74992;51.072;6.088;2024-01-06T01:24:39;100103.69;;;6.76;92.81
84764;BME280;74992;51.072;6.088;2024-01-06T01:27:40;100107.97;;;6.77;93.31
84764;BME280;74992;51.072;6.088;2024-01-06T01:30:41;100110.53;;;6.78;92.97
84764;BME280;74992;51.072;6.088;2024-01-06T01:33:43;100113.09;;;6.78;93.35
84764;BME280;74992;51.072;6.088;2024-01-06T01:36:44;100113.97;;;6.79;92.12
84764;BME280;74992;51.072;6.088;2024-01-06T01:39:45;100123.38;;;6.80;93.02
84764;BME280;74992;51.072;6.088;2024-01-06T01:42:48;100126.78;;;6.79;92.44
84764;BME280;74992;51.072;6.088;2024-01-06T01:45:53;100129.34;;;6.80;92.63
84764;BME280;74992;51.072;6.088;2024-01-06T01:48:56;100136.19;;;6.80;92.45
84764;BME280;74992;51.072;6.088;2024-01-06T01:51:57;100139.63;;;6.80;92.60
84764;BME280;74992;51.072;6.088;2024-01-06T01:54:59;100137.91;;;6.79;92.59
84764;BME280;74992;51.072;6.088;2024-01-06T01:58:01;100145.59;;;6.79;92.15
84764;BME280;74992;51.072;6.088;2024-01-06T02:01:02;100143.91;;;6.81;92.34
84764;BME280;74992;51.072;6.088;2024-01-06T02:04:04;100140.47;;;6.81;92.01
84764;BME280;74992;51.072;6.088;2024-01-06T02:07:05;100143.03;;;6.81;92.03
84764;BME280;74992;51.072;6.088;2024-01-06T02:10:17;100142.19;;;6.80;92.00
84764;BME280;74992;51.072;6.088;2024-01-06T02:13:19;100149.00;;;6.80;91.71
84764;BME280;74992;51.072;6.088;2024-01-06T02:16:20;100150.72;;;6.81;92.57
84764;BME280;74992;51.072;6.088;2024-01-06T02:19:21;100153.28;;;6.81;92.67
84764;BME280;74992;51.072;6.088;2024-01-06T02:22:23;100156.72;;;6.83;92.14
84764;BME280;74992;51.072;6.088;2024-01-06T02:25:24;100161.00;;;6.81;92.42
84764;BME280;74992;51.072;6.088;2024-01-06T02:28:26;100168.66;;;6.79;92.72
84764;BME280;74992;51.072;6.088;2024-01-06T02:31:27;100173.78;;;6.78;92.39
84764;BME280;74992;51.072;6.088;2024-01-06T02:34:29;100176.34;;;6.76;92.45
84764;BME280;74992;51.072;6.088;2024-01-06T02:37:31;100167.78;;;6.72;92.68
84764;BME280;74992;51.072;6.088;2024-01-06T02:40:32;100170.28;;;6.71;92.62
84764;BME280;74992;51.072;6.088;2024-01-06T02:43:35;100173.69;;;6.68;91.91
84764;BME280;74992;51.072;6.088;2024-01-06T02:46:36;100182.22;;;6.66;92.24
84764;BME280;74992;51.072;6.088;2024-01-06T02:49:38;100184.78;;;6.66;92.30
84764;BME280;74992;51.072;6.088;2024-01-06T02:52:39;100188.19;;;6.63;92.17
84764;BME280;74992;51.072;6.088;2024-01-06T02:55:40;100191.59;;;6.61;91.71
84764;BME280;74992;51.072;6.088;2024-01-06T02:58:42;100199.22;;;6.58;91.84
84764;BME280;74992;51.072;6.088;2024-01-06T03:01:43;100205.19;;;6.57;92.23
84764;BME280;74992;51.072;6.088;2024-01-06T03:04:46;100208.63;;;6.57;91.80
84764;BME280;74992;51.072;6.088;2024-01-06T03:07:48;100215.44;;;6.55;91.56
84764;BME280;74992;51.072;6.088;2024-01-06T03:10:49;100215.41;;;6.54;91.71
84764;BME280;74992;51.072;6.088;2024-01-06T03:13:53;100215.41;;;6.54;90.96
84764;BME280;74992;51.072;6.088;2024-01-06T03:16:54;100217.09;;;6.50;91.13
84764;BME280;74992;51.072;6.088;2024-01-06T03:19:58;100225.59;;;6.48;91.13
84764;BME280;74992;51.072;6.088;2024-01-06T03:22:59;100235.84;;;6.48;91.02
84764;BME280;74992;51.072;6.088;2024-01-06T03:26:05;100243.50;;;6.46;90.37
84764;BME280;74992;51.072;6.088;2024-01-06T03:29:07;100244.34;;;6.43;89.88
84764;BME280;74992;51.072;6.088;2024-01-06T03:32:08;100246.91;;;6.45;89.79
84764;BME280;74992;51.072;6.088;2024-01-06T03:35:10;100253.75;;;6.43;89.94
84764;BME280;74992;51.072;6.088;2024-01-06T03:38:11;100254.59;;;6.42;89.91
84764;BME280;74992;51.072;6.088;2024-01-06T03:41:12;100253.72;;;6.41;89.09
84764;BME280;74992;51.072;6.088;2024-01-06T03:44:14;100252.84;;;6.39;90.02
84764;BME280;74992;51.072;6.088;2024-01-06T03:47:15;100257.97;;;6.38;88.88
84764;BME280;74992;51.072;6.088;2024-01-06T03:50:19;100261.41;;;6.41;88.71
84764;BME280;74992;51.072;6.088;2024-01-06T03:53:22;100265.59;;;6.36;88.97
84764;BME280;74992;51.072;6.088;2024-01-06T03:56:23;100273.19;;;6.26;87.77
84764;BME280;74992;51.072;6.088;2024-01-06T03:59:25;100267.13;;;6.22;89.02
84764;BME280;74992;51.072;6.088;2024-01-06T04:02:26;100274.84;;;6.24;87.99
84764;BME280;74992;51.072;6.088;2024-01-06T04:05:28;100273.13;;;6.24;87.69
84764;BME280;74992;51.072;6.088;2024-01-06T04:08:29;100279.94;;;6.22;86.78
84764;BME280;74992;51.072;6.088;2024-01-06T04:11:30;100279.09;;;6.22;87.43
84764;BME280;74992;51.072;6.088;2024-01-06T04:14:32;100280.00;;;6.25;87.07
84764;BME280;74992;51.072;6.088;2024-01-06T04:17:33;100282.47;;;6.18;87.03
84764;BME280;74992;51.072;6.088;2024-01-06T04:20:35;100282.47;;;6.18;86.45
84764;BME280;74992;51.072;6.088;2024-01-06T04:23:36;100283.16;;;6.07;86.86
84764;BME280;74992;51.072;6.088;2024-01-06T04:26:38;100289.06;;;6.02;86.53
84764;BME280;74992;51.072;6.088;2024-01-06T04:29:39;100294.94;;;5.95;87.36
84764;BME280;74992;51.072;6.088;2024-01-06T04:32:41;100290.66;;;5.94;87.85
84764;BME280;74992;51.072;6.088;2024-01-06T04:35:42;100299.22;;;5.96;87.16
84764;BME280;74992;51.072;6.088;2024-01-06T04:38:44;100294.91;;;5.93;86.15
84764;BME280;74992;51.072;6.088;2024-01-06T04:41:45;100299.97;;;5.90;87.42
84764;BME280;74992;51.072;6.088;2024-01-06T04:44:46;100303.31;;;5.88;86.74
84764;BME280;74992;51.072;6.088;2024-01-06T04:47:48;100307.72;;;5.92;86.85
84764;BME280;74992;51.072;6.088;2024-01-06T04:50:49;100300.91;;;5.94;86.96
84764;BME280;74992;51.072;6.088;2024-01-06T04:53:51;100309.31;;;5.88;87.60
84764;BME280;74992;51.072;6.088;2024-01-06T04:56:52;100311.84;;;5.86;88.08
84764;BME280;74992;51.072;6.088;2024-01-06T04:59:54;100312.66;;;5.82;87.70
84764;BME280;74992;51.072;6.088;2024-01-06T05:02:55;100316.91;;;5.82;88.76
84764;BME280;74992;51.072;6.088;2024-01-06T05:05:56;100323.75;;;5.83;87.34
84764;BME280;74992;51.072;6.088;2024-01-06T05:08:58;100327.06;;;5.77;86.46
84764;BME280;74992;51.072;6.088;2024-01-06T05:11:59;100333.66;;;5.63;88.01
84764;BME280;74992;51.072;6.088;2024-01-06T05:15:00;100332.56;;;5.49;87.74
84764;BME280;74992;51.072;6.088;2024-01-06T05:18:02;100338.31;;;5.36;88.89
84764;BME280;74992;51.072;6.088;2024-01-06T05:21:04;100339.88;;;5.27;88.68
84764;BME280;74992;51.072;6.088;2024-01-06T05:24:05;100346.69;;;5.27;89.03
84764;BME280;74992;51.072;6.088;2024-01-06T05:27:07;100345.88;;;5.30;89.27
84764;BME280;74992;51.072;6.088;2024-01-06T05:30:09;100348.34;;;5.25;90.01
84764;BME280;74992;51.072;6.088;2024-01-06T05:33:11;100355.06;;;5.20;88.81
84764;BME280;74992;51.072;6.088;2024-01-06T05:36:18;100355.81;;;5.14;88.70
84764;BME280;74992;51.072;6.088;2024-01-06T05:39:20;100355.88;;;5.17;88.26
84764;BME280;74992;51.072;6.088;2024-01-06T05:42:21;100359.13;;;5.09;87.27
84764;BME280;74992;51.072;6.088;2024-01-06T05:45:23;100372.63;;;5.02;86.87
84764;BME280;74992;51.072;6.088;2024-01-06T05:48:24;100372.66;;;5.03;87.56
84764;BME280;74992;51.072;6.088;2024-01-06T05:51:25;100377.75;;;5.02;87.32
84764;BME280;74992;51.072;6.088;2024-01-06T05:54:28;100387.16;;;5.04;87.36
84764;BME280;74992;51.072;6.088;2024-01-06T05:57:30;100385.53;;;5.08;86.06
84764;BME280;74992;51.072;6.088;2024-01-06T06:00:32;100391.34;;;4.99;86.51
84764;BME280;74992;51.072;6.088;2024-01-06T06:03:33;100394.72;;;4.98;86.98
84764;BME280;74992;51.072;6.088;2024-01-06T06:06:34;100392.94;;;4.94;86.72
84764;BME280;74992;51.072;6.088;2024-01-06T06:09:36;100403.97;;;4.91;86.50
84764;BME280;74992;51.072;6.088;2024-01-06T06:12:39;100407.41;;;4.93;86.52
84764;BME280;74992;51.072;6.088;2024-01-06T06:15:41;100413.44;;;4.97;86.90
84764;BME280;74992;51.072;6.088;2024-01-06T06:18:42;100416.75;;;4.91;86.64
84764;BME280;74992;51.072;6.088;2024-01-06T06:21:44;100424.53;;;4.97;87.33
84764;BME280;74992;51.072;6.088;2024-01-06T06:24:45;100434.75;;;4.97;86.44
84764;BME280;74992;51.072;6.088;2024-01-06T06:27:47;100440.81;;;5.01;86.49
84764;BME280;74992;51.072;6.088;2024-01-06T06:30:49;100445.72;;;4.92;86.18
84764;BME280;74992;51.072;6.088;2024-01-06T06:33:51;100447.44;;;4.93;86.83
84764;BME280;74992;51.072;6.088;2024-01-06T06:36:52;100451.69;;;4.92;86.87
84764;BME280;74992;51.072;6.088;2024-01-06T06:39:54;100463.59;;;4.90;87.48
84764;BME280;74992;51.072;6.088;2024-01-06T06:42:55;100470.34;;;4.87;87.21
84764;BME280;74992;51.072;6.088;2024-01-06T06:45:56;100469.41;;;4.85;88.16
84764;BME280;74992;51.072;6.088;2024-01-06T06:48:58;100472.06;;;4.88;88.08
84764;BME280;74992;51.072;6.088;2024-01-06T06:51:59;100466.94;;;4.86;87.87
84764;BME280;74992;51.072;6.088;2024-01-06T06:55:00;100477.03;;;4.82;86.88
84764;BME280;74992;51.072;6.088;2024-01-06T06:58:02;100473.44;;;4.74;86.71
84764;BME280;74992;51.072;6.088;2024-01-06T07:01:03;100487.84;;;4.70;86.98
84764;BME280;74992;51.072;6.088;2024-01-06T07:04:05;100490.56;;;4.76;85.81
84764;BME280;74992;51.072;6.088;2024-01-06T07:07:07;100501.47;;;4.69;85.91
84764;BME280;74992;51.072;6.088;2024-01-06T07:10:08;100506.81;;;4.80;85.83
84764;BME280;74992;51.072;6.088;2024-01-06T07:13:09;100511.03;;;4.78;85.79
84764;BME280;74992;51.072;6.088;2024-01-06T07:16:11;100510.75;;;4.65;84.81
84764;BME280;74992;51.072;6.088;2024-01-06T07:19:12;100519.34;;;4.69;84.61
84764;BME280;74992;51.072;6.088;2024-01-06T07:22:14;100526.19;;;4.70;85.06
84764;BME280;74992;51.072;6.088;2024-01-06T07:25:16;100532.06;;;4.66;84.55
84764;BME280;74992;51.072;6.088;2024-01-06T07:28:18;100536.28;;;4.64;84.59
84764;BME280;74992;51.072;6.088;2024-01-06T07:31:19;100532.84;;;4.63;84.78
84764;BME280;74992;51.072;6.088;2024-01-06T07:34:20;100542.06;;;4.57;85.16
84764;BME280;74992;51.072;6.088;2024-01-06T07:37:22;100551.41;;;4.56;84.55
84764;BME280;74992;51.072;6.088;2024-01-06T07:40:23;100554.09;;;4.62;83.27
84764;BME280;74992;51.072;6.088;2024-01-06T07:43:25;100565.09;;;4.58;84.26
84764;BME280;74992;51.072;6.088;2024-01-06T07:46:27;100566.81;;;4.59;84.53
84764;BME280;74992;51.072;6.088;2024-01-06T07:49:28;100567.09;;;4.72;84.30
84764;BME280;74992;51.072;6.088;2024-01-06T07:52:30;100572.38;;;4.78;83.24
84764;BME280;74992;51.072;6.088;2024-01-06T07:55:34;100585.03;;;4.73;83.00
84764;BME280;74992;51.072;6.088;2024-01-06T07:58:35;100584.00;;;4.65;83.67
84764;BME280;74992;51.072;6.088;2024-01-06T08:01:36;100589.16;;;4.66;84.12
84764;BME280;74992;51.072;6.088;2024-01-06T08:04:38;100592.56;;;4.67;83.56
84764;BME280;74992;51.072;6.088;2024-01-06T08:07:39;100595.06;;;4.64;83.35
84764;BME280;74992;51.072;6.088;2024-01-06T08:10:40;100606.00;;;4.60;83.97
84764;BME280;74992;51.072;6.088;2024-01-06T08:13:42;100611.94;;;4.59;84.39
84764;BME280;74992;51.072;6.088;2024-01-06T08:16:44;100609.56;;;4.65;83.47
84764;BME280;74992;51.072;6.088;2024-01-06T08:19:46;100612.09;;;4.63;84.09
84764;BME280;74992;51.072;6.088;2024-01-06T08:22:47;100615.56;;;4.67;83.83
84764;BME280;74992;51.072;6.088;2024-01-06T08:25:49;100618.53;;;4.84;83.21
84764;BME280;74992;51.072;6.088;2024-01-06T08:28:50;100630.28;;;4.76;83.01
84764;BME280;74992;51.072;6.088;2024-01-06T08:31:52;100626.16;;;4.82;83.18
84764;BME280;74992;51.072;6.088;2024-01-06T08:34:54;100635.66;;;4.86;82.51
84764;BME280;74992;51.072;6.088;2024-01-06T08:37:56;100641.44;;;4.79;83.25
84764;BME280;74992;51.072;6.088;2024-01-06T08:40:57;100644.78;;;4.77;83.14
84764;BME280;74992;51.072;6.088;2024-01-06T08:43:58;100655.84;;;4.76;83.62
84764;BME280;74992;51.072;6.088;2024-01-06T08:47:00;100657.56;;;4.77;82.16
84764;BME280;74992;51.072;6.088;2024-01-06T08:50:01;100667.75;;;4.75;82.90
84764;BME280;74992;51.072;6.088;2024-01-06T08:53:03;100665.38;;;4.83;83.24
84764;BME280;74992;51.072;6.088;2024-01-06T08:56:05;100674.47;;;4.72;83.88
84764;BME280;74992;51.072;6.088;2024-01-06T08:59:06;100672.91;;;4.77;84.36
84764;BME280;74992;51.072;6.088;2024-01-06T09:02:08;100678.06;;;4.78;84.33
84764;BME280;74992;51.072;6.088;2024-01-06T09:05:09;100690.06;;;4.82;84.19
84764;BME280;74992;51.072;6.088;2024-01-06T09:08:11;100688.28;;;4.78;83.57
84764;BME280;74992;51.072;6.088;2024-01-06T09:11:12;100701.00;;;4.75;84.18
84764;BME280;74992;51.072;6.088;2024-01-06T09:14:14;100709.31;;;4.68;84.93
84764;BME280;74992;51.072;6.088;2024-01-06T09:17:15;100713.66;;;4.72;84.70
84764;BME280;74992;51.072;6.088;2024-01-06T09:20:16;100716.75;;;4.60;84.95
84764;BME280;74992;51.072;6.088;2024-01-06T09:23:22;100725.19;;;4.56;85.61
84764;BME280;74992;51.072;6.088;2024-01-06T09:26:25;100725.97;;;4.54;85.56
84764;BME280;74992;51.072;6.088;2024-01-06T09:29:27;100731.91;;;4.53;85.71
84764;BME280;74992;51.072;6.088;2024-01-06T09:32:28;100732.84;;;4.56;84.91
84764;BME280;74992;51.072;6.088;2024-01-06T09:35:30;100739.50;;;4.51;85.57
84764;BME280;74992;51.072;6.088;2024-01-06T09:38:32;100741.06;;;4.46;86.55
84764;BME280;74992;51.072;6.088;2024-01-06T09:41:34;100755.53;;;4.46;86.85
84764;BME280;74992;51.072;6.088;2024-01-06T09:44:35;100748.31;;;4.31;87.37
84764;BME280;74992;51.072;6.088;2024-01-06T09:47:38;100752.41;;;4.26;88.20
84764;BME280;74992;51.072;6.088;2024-01-06T09:50:42;100758.28;;;4.22;89.34
84764;BME280;74992;51.072;6.088;2024-01-06T09:53:48;100761.69;;;4.22;89.17
84764;BME280;74992;51.072;6.088;2024-01-06T09:56:50;100767.66;;;4.23;88.79
84764;BME280;74992;51.072;6.088;2024-01-06T09:59:51;100773.66;;;4.25;89.24
84764;BME280;74992;51.072;6.088;2024-01-06T10:02:54;100772.88;;;4.27;89.56
84764;BME280;74992;51.072;6.088;2024-01-06T10:05:55;100775.38;;;4.24;90.01
84764;BME280;74992;51.072;6.088;2024-01-06T10:09:00;100774.47;;;4.22;89.02
84764;BME280;74992;51.072;6.088;2024-01-06T10:12:02;100777.78;;;4.20;89.82
84764;BME280;74992;51.072;6.088;2024-01-06T10:15:03;100776.38;;;4.29;89.85
84764;BME280;74992;51.072;6.088;2024-01-06T10:18:06;100784.09;;;4.31;89.72
84764;BME280;74992;51.072;6.088;2024-01-06T10:21:08;100779.66;;;4.25;89.87
84764;BME280;74992;51.072;6.088;2024-01-06T10:24:10;100785.53;;;4.23;90.30
84764;BME280;74992;51.072;6.088;2024-01-06T10:27:11;100785.47;;;4.20;89.66
84764;BME280;74992;51.072;6.088;2024-01-06T10:30:13;100792.13;;;4.16;89.84
84764;BME280;74992;51.072;6.088;2024-01-06T10:33:19;100785.19;;;4.10;89.99
84764;BME280;74992;51.072;6.088;2024-01-06T10:36:23;100789.88;;;4.25;90.47
84764;BME280;74992;51.072;6.088;2024-01-06T10:39:25;100793.41;;;4.29;89.60
84764;BME280;74992;51.072;6.088;2024-01-06T10:42:28;100796.16;;;4.36;88.42
84764;BME280;74992;51.072;6.088;2024-01-06T10:45:30;100804.69;;;4.37;89.55
84764;BME280;74992;51.072;6.088;2024-01-06T10:48:34;100796.22;;;4.39;88.82
84764;BME280;74992;51.072;6.088;2024-01-06T10:51:38;100799.50;;;4.34;89.11
84764;BME280;74992;51.072;6.088;2024-01-06T10:54:40;100798.94;;;4.44;88.26
84764;BME280;74992;51.072;6.088;2024-01-06T10:57:43;100801.22;;;4.35;89.26
84764;BME280;74992;51.072;6.088;2024-01-06T11:00:45;100799.75;;;4.43;88.50
84764;BME280;74992;51.072;6.088;2024-01-06T11:03:48;100799.59;;;4.38;87.82
84764;BME280;74992;51.072;6.088;2024-01-06T11:06:50;100807.38;;;4.42;88.14
84764;BME280;74992;51.072;6.088;2024-01-06T11:09:58;100804.91;;;4.45;88.57
84764;BME280;74992;51.072;6.088;2024-01-06T11:13:08;100805.69;;;4.42;88.70
84764;BME280;74992;51.072;6.088;2024-01-06T11:16:10;100808.22;;;4.41;88.95
84764;BME280;74992;51.072;6.088;2024-01-06T11:22:37;100820.50;;;4.25;87.51
84764;BME280;74992;51.072;6.088;2024-01-06T11:25:41;100817.75;;;4.18;87.20
84764;BME280;74992;51.072;6.088;2024-01-06T11:28:45;100809.88;;;4.12;87.80
84764;BME280;74992;51.072;6.088;2024-01-06T11:32:20;100808.19;;;4.12;87.18
84764;BME280;74992;51.072;6.088;2024-01-06T11:35:28;100808.06;;;4.07;88.43
84764;BME280;74992;51.072;6.088;2024-01-06T11:38:33;100814.91;;;4.08;87.75
84764;BME280;74992;51.072;6.088;2024-01-06T11:41:48;100802.09;;;4.07;86.47
84764;BME280;74992;51.072;6.088;2024-01-06T11:44:51;100804.53;;;4.04;87.43
84764;BME280;74992;51.072;6.088;2024-01-06T11:48:00;100809.56;;;4.01;87.91
84764;BME280;74992;51.072;6.088;2024-01-06T11:51:03;100805.41;;;4.04;87.72
84764;BME280;74992;51.072;6.088;2024-01-06T11:54:05;100807.53;;;3.91;86.99
84764;BME280;74992;51.072;6.088;2024-01-06T11:57:06;100804.16;;;3.92;87.32
84764;BME280;74992;51.072;6.088;2024-01-06T12:00:10;100813.56;;;3.93;87.60
84764;BME280;74992;51.072;6.088;2024-01-06T12:03:15;100812.47;;;3.85;88.15
84764;BME280;74992;51.072;6.088;2024-01-06T12:06:20;100817.41;;;3.80;87.46
84764;BME280;74992;51.072;6.088;2024-01-06T12:09:23;100814.16;;;3.84;87.48
84764;BME280;74992;51.072;6.088;2024-01-06T12:12:26;100817.56;;;3.85;87.77
84764;BME280;74992;51.072;6.088;2024-01-06T12:15:30;100814.19;;;3.86;87.71
84764;BME280;74992;51.072;6.088;2024-01-06T12:18:32;100822.16;;;3.69;87.61
84764;BME280;74992;51.072;6.088;2024-01-06T12:21:33;100824.44;;;3.87;87.42
84764;BME280;74992;51.072;6.088;2024-01-06T12:24:37;100819.09;;;3.79;87.64
84764;BME280;74992;51.072;6.088;2024-01-06T12:27:44;100819.91;;;3.78;87.15
84764;BME280;74992;51.072;6.088;2024-01-06T12:30:46;100820.59;;;3.73;87.58
84764;BME280;74992;51.072;6.088;2024-01-06T12:33:47;100818.06;;;3.73;88.32
84764;BME280;74992;51.072;6.088;2024-01-06T12:36:52;100818.28;;;3.80;87.23
84764;BME280;74992;51.072;6.088;2024-01-06T12:39:56;100819.22;;;3.83;87.49
84764;BME280;74992;51.072;6.088;2024-01-06T12:42:58;100825.81;;;3.76;86.68
84764;BME280;74992;51.072;6.088;2024-01-06T12:45:59;100823.28;;;3.77;86.84
84764;BME280;74992;51.072;6.088;2024-01-06T12:49:01;100820.56;;;3.71;86.72
84764;BME280;74992;51.072;6.088;2024-01-06T12:52:03;100824.28;;;3.56;86.94
84764;BME280;74992;51.072;6.088;2024-01-06T12:55:06;100823.22;;;3.49;89.30
84764;BME280;74992;51.072;6.088;2024-01-06T12:58:08;100822.63;;;3.58;88.56
84764;BME280;74992;51.072;6.088;2024-01-06T13:01:10;100826.31;;;3.66;87.73
84764;BME280;74992;51.072;6.088;2024-01-06T13:04:11;100824.81;;;3.71;87.59
84764;BME280;74992;51.072;6.088;2024-01-06T13:07:13;100830.94;;;3.77;86.93
84764;BME280;74992;51.072;6.088;2024-01-06T13:10:15;100829.19;;;3.75;86.82
84764;BME280;74992;51.072;6.088;2024-01-06T13:13:16;100834.56;;;3.59;87.42
84764;BME280;74992;51.072;6.088;2024-01-06T13:16:18;100838.13;;;3.62;87.49
84764;BME280;74992;51.072;6.088;2024-01-06T13:19:19;100839.22;;;3.45;87.63
84764;BME280;74992;51.072;6.088;2024-01-06T13:22:21;100844.38;;;3.46;88.01
84764;BME280;74992;51.072;6.088;2024-01-06T13:25:22;100847.88;;;3.48;88.21
84764;BME280;74992;51.072;6.088;2024-01-06T13:28:24;100847.16;;;3.53;88.01
84764;BME280;74992;51.072;6.088;2024-01-06T13:31:25;100853.13;;;3.53;88.31
84764;BME280;74992;51.072;6.088;2024-01-06T13:34:27;100852.16;;;3.49;87.83
84764;BME280;74992;51.072;6.088;2024-01-06T13:37:32;100854.84;;;3.54;88.52
84764;BME280;74992;51.072;6.088;2024-01-06T13:40:34;100862.00;;;3.64;88.02
84764;BME280;74992;51.072;6.088;2024-01-06T13:43:35;100870.56;;;3.66;87.33
84764;BME280;74992;51.072;6.088;2024-01-06T13:46:37;100868.75;;;3.62;87.35
84764;BME280;74992;51.072;6.088;2024-01-06T13:49:40;100877.25;;;3.63;88.34
84764;BME280;74992;51.072;6.088;2024-01-06T13:52:43;100880.50;;;3.59;87.96
84764;BME280;74992;51.072;6.088;2024-01-06T13:55:45;100877.41;;;3.67;86.97
84764;BME280;74992;51.072;6.088;2024-01-06T13:58:47;100873.16;;;3.68;88.40
84764;BME280;74992;51.072;6.088;2024-01-06T14:01:48;100874.75;;;3.64;87.20
84764;BME280;74992;51.072;6.088;2024-01-06T14:04:51;100883.28;;;3.65;87.63
84764;BME280;74992;51.072;6.088;2024-01-06T14:07:52;100881.53;;;3.64;86.89
84764;BME280;74992;51.072;6.088;2024-01-06T14:10:54;100885.00;;;3.66;87.03
84764;BME280;74992;51.072;6.088;2024-01-06T14:13:57;100894.94;;;3.58;87.74
84764;BME280;74992;51.072;6.088;2024-01-06T14:16:59;100907.94;;;3.64;86.72
84764;BME280;74992;51.072;6.088;2024-01-06T14:20:01;100904.38;;;3.59;85.87
84764;BME280;74992;51.072;6.088;2024-01-06T14:23:03;100911.22;;;3.36;86.34
84764;BME280;74992;51.072;6.088;2024-01-06T14:26:05;100917.00;;;3.32;87.61
84764;BME280;74992;51.072;6.088;2024-01-06T14:29:06;100930.00;;;3.38;87.00
84764;BME280;74992;51.072;6.088;2024-01-06T14:32:07;100930.88;;;3.39;86.65
84764;BME280;74992;51.072;6.088;2024-01-06T14:35:09;100934.34;;;3.41;87.74
84764;BME280;74992;51.072;6.088;2024-01-06T14:38:12;100941.88;;;3.38;87.02
84764;BME280;74992;51.072;6.088;2024-01-06T14:41:13;100945.94;;;3.33;87.73
84764;BME280;74992;51.072;6.088;2024-01-06T14:44:15;100944.31;;;3.35;87.69
84764;BME280;74992;51.072;6.088;2024-01-06T14:47:17;100952.91;;;3.37;87.46
84764;BME280;74992;51.072;6.088;2024-01-06T14:50:19;100954.69;;;3.39;86.47
84764;BME280;74992;51.072;6.088;2024-01-06T14:53:20;100954.59;;;3.36;87.06
84764;BME280;74992;51.072;6.088;2024-01-06T14:56:22;100968.84;;;3.31;86.73
84764;BME280;74992;51.072;6.088;2024-01-06T14:59:23;100958.81;;;3.36;87.21
84764;BME280;74992;51.072;6.088;2024-01-06T15:02:24;100963.84;;;3.34;87.27
84764;BME280;74992;51.072;6.088;2024-01-06T15:05:27;100967.09;;;3.30;87.35
84764;BME280;74992;51.072;6.088;2024-01-06T15:08:31;100980.69;;;3.29;87.33
84764;BME280;74992;51.072;6.088;2024-01-06T15:11:32;100976.53;;;3.33;87.66
84764;BME280;74992;51.072;6.088;2024-01-06T15:14:34;100982.66;;;3.36;86.53
84764;BME280;74992;51.072;6.088;2024-01-06T15:17:35;100985.31;;;3.39;86.67
84764;BME280;74992;51.072;6.088;2024-01-06T15:20:36;100987.41;;;3.27;87.24
84764;BME280;74992;51.072;6.088;2024-01-06T15:23:38;100990.53;;;3.20;87.71
84764;BME280;74992;51.072;6.088;2024-01-06T15:26:40;100997.88;;;3.12;87.27
84764;BME280;74992;51.072;6.088;2024-01-06T15:29:42;101005.53;;;3.12;87.49
84764;BME280;74992;51.072;6.088;2024-01-06T15:32:44;101004.50;;;3.07;88.11
84764;BME280;74992;51.072;6.088;2024-01-06T15:35:45;101003.88;;;3.13;88.24
84764;BME280;74992;51.072;6.088;2024-01-06T15:38:47;101019.19;;;3.13;87.78
84764;BME280;74992;51.072;6.088;2024-01-06T15:41:49;101020.09;;;3.15;87.54
84764;BME280;74992;51.072;6.088;2024-01-06T15:44:51;101024.38;;;3.16;87.04
84764;BME280;74992;51.072;6.088;2024-01-06T15:47:52;101030.34;;;3.16;87.73
84764;BME280;74992;51.072;6.088;2024-01-06T15:50:54;101042.03;;;3.11;87.35
84764;BME280;74992;51.072;6.088;2024-01-06T15:53:55;101038.63;;;3.11;86.87
84764;BME280;74992;51.072;6.088;2024-01-06T15:56:57;101042.84;;;3.10;86.97
84764;BME280;74992;51.072;6.088;2024-01-06T15:59:58;101048.88;;;3.12;87.60
84764;BME280;74992;51.072;6.088;2024-01-06T16:03:00;101043.16;;;3.18;87.40
84764;BME280;74992;51.072;6.088;2024-01-06T16:06:03;101051.50;;;3.14;86.82
84764;BME280;74992;51.072;6.088;2024-01-06T16:09:04;101053.81;;;3.08;87.54